Time,TemperatureF,DewpointF,PressureIn,WindDirection,WindDirectionDegrees,WindSpeedMPH,WindSpeedGustMPH,Humidity,HourlyPrecipIn,Conditions,Clouds,dailyrainin,SoftwareType,DateUTC
2013-03-07 07:54:00,32.2,29.0,30.04,North,355,6.0,-999.0,88,-99.99,,,0.00,weatherlink.com 1.10,2013-03-07 12:54:00,
2013-03-07 07:58:00,32.1,29.0,30.04,North,360,3.0,-999.0,89,-99.99,,,0.00,weatherlink.com 1.10,2013-03-07 12:58:00,
2013-03-07 08:13:00,32.2,29.0,30.04,North,5,5.0,-999.0,89,-99.99,,,0.00,weatherlink.com 1.10,2013-03-07 13:13:00,
2013-03-07 08:28:00,32.5,30.0,30.03,NNW,347,11.0,-999.0,89,-99.99,,,0.00,weatherlink.com 1.10,2013-03-07 13:28:00,
2013-03-07 08:43:00,33.1,29.0,30.04,NNE,20,8.0,-999.0,86,-99.99,,,0.00,weatherlink.com 1.10,2013-03-07 13:43:00,
2013-03-07 08:58:00,33.6,29.0,30.04,North,360,11.0,-999.0,83,-99.99,,,0.00,weatherlink.com 1.10,2013-03-07 13:58:00,
2013-03-07 09:13:00,34.4,29.0,30.04,NNW,343,10.0,-999.0,81,-99.99,,,0.00,weatherlink.com 1.10,2013-03-07 14:13:00,
2013-03-07 09:28:00,34.8,29.0,30.04,NNW,347,7.0,-999.0,80,-99.99,,,0.00,weatherlink.com 1.10,2013-03-07 14:28:00,
2013-03-07 09:43:00,35.1,30.0,30.03,NNE,19,5.0,-999.0,80,-99.99,,,0.00,weatherlink.com 1.10,2013-03-07 14:43:00,
2013-03-07 09:58:00,35.0,30.0,30.04,NNW,345,8.0,-999.0,82,-99.99,,,0.00,weatherlink.com 1.10,2013-03-07 14:58:00,
2013-03-07 10:14:00,34.4,30.0,30.04,NW,321,7.0,-999.0,85,-99.99,,,0.00,weatherlink.com 1.10,2013-03-07 15:14:00,
2013-03-07 10:29:00,34.6,31.0,30.04,NW,326,7.0,-999.0,85,-99.99,,,0.00,weatherlink.com 1.10,2013-03-07 15:29:00,
2013-03-07 10:44:00,34.9,30.0,30.04,NNW,348,7.0,-999.0,83,-99.99,,,0.00,weatherlink.com 1.10,2013-03-07 15:44:00,
2013-03-07 10:59:00,34.8,31.0,30.04,NNW,327,6.0,-999.0,85,-99.99,,,0.00,weatherlink.com 1.10,2013-03-07 15:59:00,
2013-03-07 11:14:00,34.7,31.0,30.04,NNW,348,4.0,-999.0,87,-99.99,,,0.00,weatherlink.com 1.10,2013-03-07 16:14:00,
2013-03-07 11:29:00,34.7,31.0,30.04,North,5,6.0,-999.0,87,-99.99,,,0.00,weatherlink.com 1.10,2013-03-07 16:29:00,
2013-03-07 11:44:00,35.1,31.0,30.04,North,5,4.0,-999.0,86,-99.99,,,0.00,weatherlink.com 1.10,2013-03-07 16:44:00,
2013-03-07 11:59:00,35.6,32.0,30.04,North,360,2.0,-999.0,85,-99.99,,,0.00,weatherlink.com 1.10,2013-03-07 16:59:00,
2013-03-07 12:14:00,35.8,31.0,30.04,NNW,332,8.0,-999.0,84,-99.99,,,0.00,weatherlink.com 1.10,2013-03-07 17:14:00,
2013-03-07 12:29:00,36.0,31.0,30.04,North,355,4.0,-999.0,83,-99.99,,,0.00,weatherlink.com 1.10,2013-03-07 17:29:00,
2013-03-07 12:44:00,36.1,31.0,30.04,North,9,7.0,-999.0,82,-99.99,,,0.00,weatherlink.com 1.10,2013-03-07 17:44:00,
2013-03-07 12:59:00,36.1,32.0,30.04,NNW,337,6.0,-999.0,84,-99.99,,,0.00,weatherlink.com 1.10,2013-03-07 17:59:00,
2013-03-07 13:14:00,35.9,31.0,30.03,NNW,347,7.0,-999.0,83,-99.99,,,0.00,weatherlink.com 1.10,2013-03-07 18:14:00,
2013-03-07 13:30:00,35.5,31.0,30.03,NNW,344,9.0,-999.0,84,-99.99,,,0.00,weatherlink.com 1.10,2013-03-07 18:30:00,
2013-03-07 13:45:00,35.4,31.0,30.04,North,355,4.0,-999.0,85,-99.99,,,0.00,weatherlink.com 1.10,2013-03-07 18:45:00,
2013-03-07 14:00:00,35.3,32.0,30.04,NW,325,6.0,-999.0,86,-99.99,,,0.00,weatherlink.com 1.10,2013-03-07 19:00:00,
2013-03-07 14:15:00,35.2,31.0,30.05,North,360,8.0,-999.0,85,-99.99,,,0.00,weatherlink.com 1.10,2013-03-07 19:15:00,
2013-03-07 14:45:00,34.8,31.0,30.05,NNW,344,5.0,-999.0,87,-99.99,,,0.00,weatherlink.com 1.10,2013-03-07 19:45:00,
2013-03-07 15:00:00,34.6,31.0,30.05,NNW,338,6.0,-999.0,87,-99.99,,,0.00,weatherlink.com 1.10,2013-03-07 20:00:00,
2013-03-07 15:15:00,34.7,31.0,30.06,North,355,8.0,-999.0,87,-99.99,,,0.00,weatherlink.com 1.10,2013-03-07 20:15:00,
2013-03-07 15:30:00,34.6,31.0,30.06,NW,326,8.0,-999.0,87,-99.99,,,0.00,weatherlink.com 1.10,2013-03-07 20:30:00,
2013-03-07 15:45:00,34.2,31.0,30.06,NW,311,9.0,-999.0,89,-99.99,,,0.00,weatherlink.com 1.10,2013-03-07 20:45:00,
2013-03-07 16:00:00,34.0,31.0,30.06,North,351,12.0,-999.0,89,-99.99,,,0.00,weatherlink.com 1.10,2013-03-07 21:00:00,
2013-03-07 16:15:00,33.9,31.0,30.07,NNW,333,7.0,-999.0,89,-99.99,,,0.00,weatherlink.com 1.10,2013-03-07 21:15:00,
2013-03-07 16:31:00,33.9,31.0,30.07,NW,317,5.0,-999.0,89,-99.99,,,0.00,weatherlink.com 1.10,2013-03-07 21:31:00,
2013-03-07 16:46:00,33.9,31.0,30.07,North,350,5.0,-999.0,88,-99.99,,,0.00,weatherlink.com 1.10,2013-03-07 21:46:00,
2013-03-07 17:01:00,34.0,31.0,30.08,NNE,12,10.0,-999.0,87,-99.99,,,0.00,weatherlink.com 1.10,2013-03-07 22:01:00,
2013-03-07 17:16:00,34.0,31.0,30.08,North,351,9.0,-999.0,88,-99.99,,,0.00,weatherlink.com 1.10,2013-03-07 22:16:00,
2013-03-07 17:31:00,33.7,31.0,30.08,North,349,1.0,-999.0,89,-99.99,,,0.00,weatherlink.com 1.10,2013-03-07 22:31:00,
2013-03-07 17:46:00,33.3,31.0,30.08,North,360,4.0,-999.0,91,-99.99,,,0.00,weatherlink.com 1.10,2013-03-07 22:46:00,
2013-03-07 18:01:00,33.2,31.0,30.09,North,355,4.0,-999.0,91,-99.99,,,0.00,weatherlink.com 1.10,2013-03-07 23:01:00,
2013-03-07 18:16:00,33.2,31.0,30.09,North,349,6.0,-999.0,91,-99.99,,,0.00,weatherlink.com 1.10,2013-03-07 23:16:00,
2013-03-07 18:31:00,33.3,31.0,30.09,North,11,2.0,-999.0,91,-99.99,,,0.00,weatherlink.com 1.10,2013-03-07 23:31:00,
2013-03-07 18:46:00,33.3,31.0,30.09,North,355,8.0,-999.0,91,-99.99,,,0.00,weatherlink.com 1.10,2013-03-07 23:46:00,
2013-03-07 19:01:00,33.2,31.0,30.09,NNW,328,5.0,-999.0,92,-99.99,,,0.00,weatherlink.com 1.10,2013-03-08 00:01:00,
2013-03-07 19:16:00,32.9,31.0,30.09,North,351,5.0,-999.0,92,-99.99,,,0.00,weatherlink.com 1.10,2013-03-08 00:16:00,
2013-03-07 19:32:00,32.7,31.0,30.09,NNW,347,5.0,-999.0,93,-99.99,,,0.00,weatherlink.com 1.10,2013-03-08 00:32:00,
2013-03-07 19:47:00,32.6,31.0,30.09,NNW,346,6.0,-999.0,94,-99.99,,,0.00,weatherlink.com 1.10,2013-03-08 00:47:00,
2013-03-07 20:02:00,32.5,31.0,30.10,North,360,6.0,-999.0,94,-99.99,,,0.00,weatherlink.com 1.10,2013-03-08 01:02:00,
2013-03-07 20:17:00,32.4,31.0,30.09,North,355,1.0,-999.0,94,-99.99,,,0.00,weatherlink.com 1.10,2013-03-08 01:17:00,
2013-03-07 20:32:00,32.3,31.0,30.09,NNE,22,0.0,-999.0,94,-99.99,,,0.00,weatherlink.com 1.10,2013-03-08 01:32:00,
2013-03-07 20:47:00,32.2,31.0,30.09,NNW,337,4.0,-999.0,94,-99.99,,,0.00,weatherlink.com 1.10,2013-03-08 01:47:00,
2013-03-07 21:02:00,32.1,31.0,30.09,NNE,19,5.0,-999.0,95,-99.99,,,0.00,weatherlink.com 1.10,2013-03-08 02:02:00,
2013-03-07 21:17:00,32.1,31.0,30.08,NNW,337,2.0,-999.0,95,-99.99,,,0.00,weatherlink.com 1.10,2013-03-08 02:17:00,
2013-03-07 21:32:00,32.0,31.0,30.08,North,355,2.0,-999.0,95,-99.99,,,0.00,weatherlink.com 1.10,2013-03-08 02:32:00,
2013-03-07 21:47:00,32.0,31.0,30.07,North,360,2.0,-999.0,95,-99.99,,,0.00,weatherlink.com 1.10,2013-03-08 02:47:00,
2013-03-07 22:02:00,31.9,31.0,30.07,NNW,338,4.0,-999.0,95,-99.99,,,0.00,weatherlink.com 1.10,2013-03-08 03:02:00,
2013-03-07 22:17:00,32.0,31.0,30.07,NW,317,2.0,-999.0,95,-99.99,,,0.00,weatherlink.com 1.10,2013-03-08 03:17:00,